Time;durP1;ratioP1;P1;durP2;ratioP2;P2;SDS_P1;SDS_P2;PMS_P1;PMS_P2;Temp;Humidity;BMP_temperature;BMP_pressure;BME280_temperature;BME280_humidity;BME280_pressure;Samples;Min_cycle;Max_cycle;Signal;HPM_P1;HPM_P2
2022/05/20 00:01:22;;;;;;;;;;;;;;;;;;5090776;28;19969;-72
2022/05/20 00:03:48;;;;;;;;;;;;;;;;;;5091214;28;19912;-72
2022/05/20 00:07:12;;;;;;;;;;;;;;;;;;5091598;28;20368;-71
2022/05/20 00:09:38;;;;;;;;;;;;;;;;;;5091499;28;20011;-71
2022/05/20 00:12:04;;;;;;;;;;;;;;;;;;5091219;28;20315;-71
2022/05/20 00:14:30;;;;;;;;;;;;;;;;;;5090787;28;19962;-71
2022/05/20 00:16:56;;;;;;;;;;;;;;;;;;5091193;28;19908;-72
2022/05/20 00:19:22;;;;;;;;;;;;;;;;;;5091316;28;19947;-72
2022/05/20 00:21:48;;;;;;;;;;;;;;;;;;5090685;28;19908;-72
2022/05/20 00:24:14;;;;;;;;;;;;;;;;;;5090937;28;19908;-72
2022/05/20 00:26:40;;;;;;;;;;;;;;;;;;5090758;28;19916;-72
2022/05/20 00:29:06;;;;;;;;;;;;;;;;;;5090836;28;19909;-72
2022/05/20 00:31:33;;;;;;;;;;;;;;;;;;5090759;28;19912;-71
2022/05/20 00:33:59;;;;;;;;;;;;;;;;;;5090828;28;20373;-71
2022/05/20 00:36:25;;;;;;;;;;;;;;;;;;5090306;28;19915;-71
2022/05/20 00:38:51;;;;;;;;;;;;;;;;;;5090889;28;20333;-71
2022/05/20 00:41:17;;;;;;;;;;;;;;;;;;5090680;28;20011;-72
2022/05/20 00:43:43;;;;;;;;;;;;;;;;;;5089021;28;20402;-71
2022/05/20 00:46:09;;;;;;;;;;;;;;;;;;5090641;28;20007;-71
2022/05/20 00:48:35;;;;;;;;;;;;;;;;;;5090519;28;20330;-72
2022/05/20 00:51:01;;;;;;;;;;;;;;;;;;5089990;28;19916;-71
2022/05/20 00:53:27;;;;;;;;;;;;;;;;;;5090700;28;19908;-71
2022/05/20 00:55:53;;;;;;;;;;;;;;;;;;5090592;28;19915;-71
2022/05/20 00:58:19;;;;;;;;;;;;;;;;;;5089940;28;19915;-71
2022/05/20 01:00:45;;;;;;;;;;;;;;;;;;5090316;28;19908;-71
2022/05/20 01:03:11;;;;;;;;;;;;;;;;;;5090365;28;19908;-72
2022/05/20 01:05:37;;;;;;;;;;;;;;;;;;5097066;28;19928;-71
2022/05/20 01:08:03;;;;;;;;;;;;;;;;;;5092276;28;20368;-72
2022/05/20 01:10:29;;;;;;;;;;;;;;;;;;5110155;28;20376;-72
2022/05/20 01:12:55;;;;;;;;;;;;;;;;;;5110525;28;20284;-72
2022/05/20 01:15:21;;;;;;;;;;;;;;;;;;5110314;28;20268;-71
2022/05/20 01:17:47;;;;;;;;;;;;;;;;;;5100513;28;19916;-72
2022/05/20 01:20:13;;;;;;;;;;;;;;;;;;5096695;28;19930;-72
2022/05/20 01:22:38;;;;;;;;;;;;;;;;;;5096603;28;19908;-72
2022/05/20 01:25:05;;;;;;;;;;;;;;;;;;5096186;28;19912;-72
2022/05/20 01:27:31;;;;;;;;;;;;;;;;;;5096529;28;19912;-72
2022/05/20 01:29:57;;;;;;;;;;;;;;;;;;5096500;28;19915;-72
2022/05/20 01:32:23;;;;;;;;;;;;;;;;;;5095979;28;19912;-72
2022/05/20 01:34:49;;;;;;;;;;;;;;;;;;5096258;28;19909;-71
2022/05/20 01:37:15;;;;;;;;;;;;;;;;;;5096352;28;19909;-71
2022/05/20 01:39:42;;;;;;;;;;;;;;;;;;5095894;28;19908;-71
2022/05/20 01:42:08;;;;;;;;;;;;;;;;;;5096338;28;19961;-72
2022/05/20 01:44:34;;;;;;;;;;;;;;;;;;5096424;28;19931;-72
2022/05/20 01:47:00;;;;;;;;;;;;;;;;;;5095975;28;20372;-72
2022/05/20 01:49:26;;;;;;;;;;;;;;;;;;5096102;28;20355;-72
2022/05/20 01:51:52;;;;;;;;;;;;;;;;;;5096610;28;20325;-72
2022/05/20 01:54:18;;;;;;;;;;;;;;;;;;5095606;28;20270;-71
2022/05/20 01:56:44;;;;;;;;;;;;;;;;;;5095965;28;20280;-71
2022/05/20 01:59:10;;;;;;;;;;;;;;;;;;5096115;28;20340;-72
2022/05/20 02:01:36;;;;;;;;;;;;;;;;;;5095525;28;19947;-72
2022/05/20 02:04:02;;;;;;;;;;;;;;;;;;5095788;28;19943;-72
2022/05/20 02:06:28;;;;;;;;;;;;;;;;;;5095539;28;19920;-72
2022/05/20 02:08:54;;;;;;;;;;;;;;;;;;5095337;28;20379;-72
2022/05/20 02:11:20;;;;;;;;;;;;;;;;;;5095669;28;20372;-72
2022/05/20 02:13:46;;;;;;;;;;;;;;;;;;5095257;28;20372;-72
2022/05/20 02:16:12;;;;;;;;;;;;;;;;;;5095551;28;20284;-72
2022/05/20 02:18:38;;;;;;;;;;;;;;;;;;5095517;28;20271;-72
2022/05/20 02:21:04;;;;;;;;;;;;;;;;;;5095060;28;19908;-72
2022/05/20 02:23:31;;;;;;;;;;;;;;;;;;5077338;28;19927;-72
2022/05/20 02:25:57;;;;;;;;;;;;;;;;;;5095387;28;19916;-72
2022/05/20 02:28:23;;;;;;;;;;;;;;;;;;5094507;28;20257;-72
2022/05/20 02:30:49;;;;;;;;;;;;;;;;;;5076822;28;19916;-72
2022/05/20 02:33:15;;;;;;;;;;;;;;;;;;5095280;28;19908;-72
2022/05/20 02:35:41;;;;;;;;;;;;;;;;;;5094846;28;19951;-71
2022/05/20 02:38:07;;;;;;;;;;;;;;;;;;5095529;28;19999;-71
2022/05/20 02:40:32;;;;;;;;;;;;;;;;;;5095196;28;20391;-72
2022/05/20 02:42:58;;;;;;;;;;;;;;;;;;5094681;28;19987;-72
2022/05/20 02:45:24;;;;;;;;;;;;;;;;;;5076806;28;20367;-72
2022/05/20 02:47:50;;;;;;;;;;;;;;;;;;5095279;28;20410;-72
2022/05/20 02:50:16;;;;;;;;;;;;;;;;;;5094544;28;20353;-72
2022/05/20 02:52:42;;;;;;;;;;;;;;;;;;5095191;28;20337;-71
2022/05/20 02:55:08;;;;;;;;;;;;;;;;;;5095198;28;19908;-71
2022/05/20 02:57:35;;;;;;;;;;;;;;;;;;5094452;28;19908;-71
2022/05/20 03:05:30;;;;;;;;;;;;;;;;;;5094602;28;19962;-72
2022/05/20 03:07:56;;;;;;;;;;;;;;;;;;5094899;28;20300;-72
2022/05/20 03:10:22;;;;;;;;;;;;;;;;;;5094160;28;19912;-72
2022/05/20 03:12:48;;;;;;;;;;;;;;;;;;5094473;28;19908;-72
2022/05/20 03:15:15;;;;;;;;;;;;;;;;;;5094612;28;19908;-72
2022/05/20 03:17:40;;;;;;;;;;;;;;;;;;5094029;28;20010;-72
2022/05/20 03:20:08;;;;;;;;;;;;;;;;;;5076204;28;20004;-72
2022/05/20 03:22:34;;;;;;;;;;;;;;;;;;5094369;28;19912;-72
2022/05/20 03:25:00;;;;;;;;;;;;;;;;;;5093879;28;19934;-72
2022/05/20 03:27:27;;;;;;;;;;;;;;;;;;5094362;28;19908;-72
2022/05/20 03:29:53;;;;;;;;;;;;;;;;;;5076140;28;19934;-72
2022/05/20 03:32:19;;;;;;;;;;;;;;;;;;5093923;28;19908;-72
2022/05/20 03:34:45;;;;;;;;;;;;;;;;;;5094204;28;20356;-72
2022/05/20 03:37:11;;;;;;;;;;;;;;;;;;5094732;28;20361;-72
2022/05/20 03:39:37;;;;;;;;;;;;;;;;;;5093519;28;19908;-72
2022/05/20 03:42:03;;;;;;;;;;;;;;;;;;5094002;28;19909;-72
2022/05/20 03:44:29;;;;;;;;;;;;;;;;;;5093970;28;20008;-72
2022/05/20 03:46:55;;;;;;;;;;;;;;;;;;5093554;28;19916;-71
2022/05/20 03:49:21;;;;;;;;;;;;;;;;;;5094021;28;19954;-71
2022/05/20 03:51:47;;;;;;;;;;;;;;;;;;5093926;28;19940;-71
2022/05/20 03:54:13;;;;;;;;;;;;;;;;;;5093558;28;19908;-71
2022/05/20 03:56:40;;;;;;;;;;;;;;;;;;5094193;28;19948;-71
2022/05/20 03:59:08;;;;;;;;;;;;;;;;;;5075803;28;20361;-72
2022/05/20 04:04:19;;;;;;;;;;;;;;;;;;5093950;28;20002;-71
2022/05/20 04:06:45;;;;;;;;;;;;;;;;;;5093091;28;20372;-71
2022/05/20 04:09:11;;;;;;;;;;;;;;;;;;5094031;28;20288;-71
2022/05/20 04:11:38;;;;;;;;;;;;;;;;;;5075687;28;20280;-72
2022/05/20 04:14:03;;;;;;;;;;;;;;;;;;5093550;28;20003;-71
2022/05/20 04:16:29;;;;;;;;;;;;;;;;;;5075690;28;19948;-72
2022/05/20 04:18:55;;;;;;;;;;;;;;;;;;5093584;28;19908;-71
2022/05/20 04:21:21;;;;;;;;;;;;;;;;;;5093297;28;19985;-71
2022/05/20 04:23:47;;;;;;;;;;;;;;;;;;5093906;28;19909;-72
2022/05/20 04:26:13;;;;;;;;;;;;;;;;;;5093900;28;20406;-71
2022/05/20 04:28:39;;;;;;;;;;;;;;;;;;5074857;28;20360;-72
2022/05/20 04:31:05;;;;;;;;;;;;;;;;;;5093575;28;19908;-71
2022/05/20 04:33:31;;;;;;;;;;;;;;;;;;5093491;28;19934;-70
2022/05/20 04:35:57;;;;;;;;;;;;;;;;;;5093066;28;19908;-69
2022/05/20 04:38:23;;;;;;;;;;;;;;;;;;5093474;28;20041;-68
2022/05/20 04:46:56;;;;;;;;;;;;;;;;;;5092108;28;19912;-69
2022/05/20 04:49:09;;;;;;;;;;;;;;;;;;5092584;28;20402;-68
2022/05/20 04:51:35;;;;;;;;;;;;;;;;;;5092814;28;19915;-70
2022/05/20 04:56:45;;;;;;;;;;;;;;;;;;5096766;28;19914;-70
2022/05/20 04:59:11;;;;;;;;;;;;;;;;;;5096109;28;19912;-70
2022/05/20 05:01:37;;;;;;;;;;;;;;;;;;5095028;28;19973;-69
2022/05/20 05:04:03;;;;;;;;;;;;;;;;;;5101111;28;19912;-70
2022/05/20 05:06:29;;;;;;;;;;;;;;;;;;5115428;28;20029;-68
2022/05/20 05:08:55;;;;;;;;;;;;;;;;;;5115741;28;20352;-68
2022/05/20 05:11:21;;;;;;;;;;;;;;;;;;5108792;28;19923;-70
2022/05/20 05:13:47;;;;;;;;;;;;;;;;;;5091551;28;19977;-69
2022/05/20 05:16:13;;;;;;;;;;;;;;;;;;5096620;28;19908;-69
2022/05/20 05:18:39;;;;;;;;;;;;;;;;;;5096015;28;19912;-68
2022/05/20 05:21:05;;;;;;;;;;;;;;;;;;5094241;28;19999;-68
2022/05/20 05:23:31;;;;;;;;;;;;;;;;;;5093745;28;20404;-69
2022/05/20 05:25:57;;;;;;;;;;;;;;;;;;5076073;28;19923;-69
2022/05/20 05:28:23;;;;;;;;;;;;;;;;;;5093304;28;20409;-67
2022/05/20 05:30:49;;;;;;;;;;;;;;;;;;5091689;28;20242;-67
2022/05/20 05:33:15;;;;;;;;;;;;;;;;;;5090868;28;19915;-69
2022/05/20 05:37:12;;;;;;;;;;;;;;;;;;5086668;27;19923;-69
2022/05/20 05:40:56;;;;;;;;;;;;;;;;;;5086039;27;20410;-69
2022/05/20 05:43:22;;;;;;;;;;;;;;;;;;5088165;28;19912;-68
2022/05/20 05:45:48;;;;;;;;;;;;;;;;;;5086948;28;20431;-69
2022/05/20 05:48:17;;;;;;;;;;;;;;;;;;5091506;28;19919;-69
2022/05/20 05:52:01;;;;;;;;;;;;;;;;;;5110569;27;19916;-68
2022/05/20 05:55:25;;;;;;;;;;;;;;;;;;5088250;27;19921;-68
2022/05/20 05:57:51;;;;;;;;;;;;;;;;;;5087948;28;19913;-70
2022/05/20 06:00:17;;;;;;;;;;;;;;;;;;5088357;28;20265;-70
2022/05/20 06:04:15;;;;;;;;;;;;;;;;;;5090117;28;19920;-70
2022/05/20 06:06:41;;;;;;;;;;;;;;;;;;5088445;28;20424;-71
2022/05/20 06:09:07;;;;;;;;;;;;;;;;;;5088813;28;19917;-71
2022/05/20 06:13:22;;;;;;;;;;;;;;;;;;5102033;27;19920;-72
2022/05/20 06:15:48;;;;;;;;;;;;;;;;;;5087226;28;20379;-70
2022/05/20 06:23:34;;;;;;;;;;;;;;;;;;5088273;28;20422;-69
2022/05/20 06:26:00;;;;;;;;;;;;;;;;;;5087944;28;19912;-70
2022/05/20 06:33:34;;;;;;;;;;;;;;;;;;5087430;27;19917;-69
2022/05/20 06:42:59;;;;;;;;;;;;;;;;;;5086735;27;19917;-73
2022/05/20 06:45:25;;;;;;;;;;;;;;;;;;5088156;28;19923;-70
2022/05/20 06:47:51;;;;;;;;;;;;;;;;;;5084110;28;19909;-70
2022/05/20 06:50:18;;;;;;;;;;;;;;;;;;5085838;28;19959;-71
2022/05/20 06:53:41;;;;;;;;;;;;;;;;;;5089335;27;19920;-71
2022/05/20 06:56:07;;;;;;;;;;;;;;;;;;5065262;28;19944;-71
2022/05/20 06:58:33;;;;;;;;;;;;;;;;;;5064122;28;19920;-70
2022/05/20 07:04:57;;;;;;;;;;;;;;;;;;5086723;27;19916;-70
2022/05/20 07:07:23;;;;;;;;;;;;;;;;;;5086332;28;19936;-70
2022/05/20 07:09:49;;;;;;;;;;;;;;;;;;5088033;28;19909;-70
2022/05/20 07:12:59;;;;;;;;;;;;;;;;;;5085394;28;19917;-70
2022/05/20 07:15:25;;;;;;;;;;;;;;;;;;5086531;28;19919;-69
2022/05/20 07:17:51;;;;;;;;;;;;;;;;;;5088098;28;19961;-68
2022/05/20 07:20:17;;;;;;;;;;;;;;;;;;5079243;28;19934;-67
2022/05/20 07:22:43;;;;;;;;;;;;;;;;;;5079255;28;19920;-68
2022/05/20 07:27:39;;;;;;;;;;;;;;;;;;5088007;27;19916;-69
2022/05/20 07:33:07;;;;;;;;;;;;;;;;;;5092207;27;19924;-68
2022/05/20 07:35:33;;;;;;;;;;;;;;;;;;5109024;28;19919;-69
2022/05/20 07:37:59;;;;;;;;;;;;;;;;;;5108680;28;19912;-69
2022/05/20 07:40:25;;;;;;;;;;;;;;;;;;5109148;28;19958;-70
2022/05/20 07:47:38;;;;;;;;;;;;;;;;;;5090534;27;19921;-67
2022/05/20 07:55:15;;;;;;;;;;;;;;;;;;5090747;28;19919;-68
2022/05/20 07:57:58;;;;;;;;;;;;;;;;;;5088961;27;19916;-69
2022/05/20 08:00:24;;;;;;;;;;;;;;;;;;5082308;28;19931;-68
2022/05/20 08:05:16;;;;;;;;;;;;;;;;;;5087669;27;19917;-69
2022/05/20 08:11:33;;;;;;;;;;;;;;;;;;5066632;28;19916;-67
2022/05/20 08:14:57;;;;;;;;;;;;;;;;;;5086570;27;19920;-67
2022/05/20 08:17:24;;;;;;;;;;;;;;;;;;5084754;28;19922;-67
2022/05/20 08:19:51;;;;;;;;;;;;;;;;;;5084650;28;19908;-68
2022/05/20 08:22:22;;;;;;;;;;;;;;;;;;5084089;28;20600;-69
2022/05/20 08:24:48;;;;;;;;;;;;;;;;;;5084111;28;19913;-68
2022/05/20 08:29:00;;;;;;;;;;;;;;;;;;5085096;28;20364;-68
2022/05/20 08:32:38;;;;;;;;;;;;;;;;;;5084233;27;19927;-69
2022/05/20 08:35:04;;;;;;;;;;;;;;;;;;5073965;28;19913;-68
2022/05/20 08:40:34;;;;;;;;;;;;;;;;;;5138683;27;19922;-69
2022/05/20 08:43:00;;;;;;;;;;;;;;;;;;5126177;27;19955;-69
2022/05/20 08:45:26;;;;;;;;;;;;;;;;;;5129420;28;19934;-70
2022/05/20 08:48:48;;;;;;;;;;;;;;;;;;5088599;27;19916;-70
2022/05/20 08:51:14;;;;;;;;;;;;;;;;;;5087434;28;19919;-69
2022/05/20 08:53:40;;;;;;;;;;;;;;;;;;5087735;28;20391;-69
2022/05/20 09:00:26;;;;;;;;;;;;;;;;;;5124868;27;20298;-69
2022/05/20 09:02:52;;;;;;;;;;;;;;;;;;5128839;28;19916;-69
2022/05/20 09:05:18;;;;;;;;;;;;;;;;;;5122502;28;19912;-70
2022/05/20 09:07:44;;;;;;;;;;;;;;;;;;5107520;28;19918;-69
2022/05/20 09:11:05;;;;;;;;;;;;;;;;;;5085241;27;19916;-69
2022/05/20 09:16:15;;;;;;;;;;;;;;;;;;5086874;28;20280;-70
2022/05/20 09:18:41;;;;;;;;;;;;;;;;;;5085359;28;19912;-71
2022/05/20 09:21:07;;;;;;;;;;;;;;;;;;5084995;28;19908;-73
2022/05/20 09:23:33;;;;;;;;;;;;;;;;;;5084427;28;19946;-69
2022/05/20 09:25:59;;;;;;;;;;;;;;;;;;5084412;28;19909;-68
2022/05/20 09:28:25;;;;;;;;;;;;;;;;;;5087383;28;19956;-70
2022/05/20 09:30:51;;;;;;;;;;;;;;;;;;5089400;28;19923;-70
2022/05/20 09:33:17;;;;;;;;;;;;;;;;;;5088503;28;19973;-71
2022/05/20 09:35:43;;;;;;;;;;;;;;;;;;5087666;28;20408;-70
2022/05/20 09:38:09;;;;;;;;;;;;;;;;;;5088639;28;20357;-69
2022/05/20 09:40:37;;;;;;;;;;;;;;;;;;5084700;28;19916;-69
2022/05/20 09:43:03;;;;;;;;;;;;;;;;;;5089525;28;20344;-69
2022/05/20 09:45:31;;;;;;;;;;;;;;;;;;5087557;28;20035;-69
2022/05/20 09:47:57;;;;;;;;;;;;;;;;;;5086802;28;19942;-68
2022/05/20 09:50:22;;;;;;;;;;;;;;;;;;5089723;28;19917;-70
2022/05/20 09:52:48;;;;;;;;;;;;;;;;;;5087169;28;20404;-70
2022/05/20 09:57:31;;;;;;;;;;;;;;;;;;5148694;27;20016;-69
2022/05/20 09:59:57;;;;;;;;;;;;;;;;;;5145012;27;20652;-71
2022/05/20 10:02:23;;;;;;;;;;;;;;;;;;5142690;27;19912;-70
2022/05/20 10:04:49;;;;;;;;;;;;;;;;;;5126415;27;19922;-77
2022/05/20 10:07:15;;;;;;;;;;;;;;;;;;5145182;27;19911;-77
2022/05/20 10:11:37;;;;;;;;;;;;;;;;;;5085932;27;20300;-75
2022/05/20 10:14:25;;;;;;;;;;;;;;;;;;5081034;28;19926;-75
2022/05/20 10:16:50;;;;;;;;;;;;;;;;;;5080874;28;19913;-75
2022/05/20 10:19:17;;;;;;;;;;;;;;;;;;5081914;28;19920;-77
2022/05/20 10:21:43;;;;;;;;;;;;;;;;;;5081125;28;19966;-77
2022/05/20 10:24:09;;;;;;;;;;;;;;;;;;5083319;28;20674;-76
2022/05/20 10:26:35;;;;;;;;;;;;;;;;;;5082435;28;20002;-80
2022/05/20 10:34:30;;;;;;;;;;;;;;;;;;5077909;28;19944;-74
2022/05/20 10:36:56;;;;;;;;;;;;;;;;;;5068900;28;20353;-77
2022/05/20 10:39:22;;;;;;;;;;;;;;;;;;5078319;28;19915;-74
2022/05/20 10:42:20;;;;;;;;;;;;;;;;;;5087014;28;19923;-73
2022/05/20 10:50:15;;;;;;;;;;;;;;;;;;5066472;28;20062;-70
2022/05/20 10:52:41;;;;;;;;;;;;;;;;;;5065363;28;20378;-69
2022/05/20 10:55:09;;;;;;;;;;;;;;;;;;5067363;28;19999;-71
2022/05/20 10:57:35;;;;;;;;;;;;;;;;;;5067050;28;19916;-70
2022/05/20 11:00:03;;;;;;;;;;;;;;;;;;5068167;28;19916;-72
2022/05/20 11:02:29;;;;;;;;;;;;;;;;;;5066977;28;19909;-70
2022/05/20 11:04:55;;;;;;;;;;;;;;;;;;5067445;28;19944;-71
2022/05/20 11:07:21;;;;;;;;;;;;;;;;;;5066737;28;19944;-71
2022/05/20 11:09:47;;;;;;;;;;;;;;;;;;5066097;28;19912;-70
2022/05/20 11:12:13;;;;;;;;;;;;;;;;;;5074107;28;19913;-70
2022/05/20 11:14:39;;;;;;;;;;;;;;;;;;5090823;28;20372;-69
2022/05/20 11:17:05;;;;;;;;;;;;;;;;;;5096576;28;20566;-71
2022/05/20 11:19:31;;;;;;;;;;;;;;;;;;5086148;28;19912;-71
2022/05/20 11:21:57;;;;;;;;;;;;;;;;;;5086843;28;20011;-71
2022/05/20 11:24:26;;;;;;;;;;;;;;;;;;5086920;28;20345;-73
2022/05/20 11:26:52;;;;;;;;;;;;;;;;;;5086478;28;19915;-72
2022/05/20 11:29:18;;;;;;;;;;;;;;;;;;5084744;28;20003;-73
2022/05/20 11:31:45;;;;;;;;;;;;;;;;;;5088120;28;19908;-70
2022/05/20 11:34:12;;;;;;;;;;;;;;;;;;5089718;28;19921;-69
2022/05/20 11:36:38;;;;;;;;;;;;;;;;;;5105858;28;19919;-69
2022/05/20 11:39:04;;;;;;;;;;;;;;;;;;5109939;28;19916;-69
2022/05/20 11:41:31;;;;;;;;;;;;;;;;;;5123416;28;19924;-70
2022/05/20 11:44:00;;;;;;;;;;;;;;;;;;5129299;28;19915;-72
2022/05/20 11:46:26;;;;;;;;;;;;;;;;;;5127494;28;19931;-69
2022/05/20 11:48:52;;;;;;;;;;;;;;;;;;5127458;28;20352;-69
2022/05/20 11:51:18;;;;;;;;;;;;;;;;;;5108958;28;19908;-69
2022/05/20 11:53:44;;;;;;;;;;;;;;;;;;5113421;28;19911;-69
2022/05/20 11:56:10;;;;;;;;;;;;;;;;;;5094735;28;19908;-70
2022/05/20 11:58:36;;;;;;;;;;;;;;;;;;5110046;28;19912;-69
2022/05/20 12:01:02;;;;;;;;;;;;;;;;;;5065988;28;20346;-70
2022/05/20 12:03:28;;;;;;;;;;;;;;;;;;5083414;28;19916;-70
2022/05/20 12:05:54;;;;;;;;;;;;;;;;;;5076745;28;19908;-71
2022/05/20 12:08:20;;;;;;;;;;;;;;;;;;5075869;28;19909;-69
2022/05/20 12:10:46;;;;;;;;;;;;;;;;;;5104851;28;19912;-69
2022/05/20 12:13:12;;;;;;;;;;;;;;;;;;5093929;28;19959;-70
2022/05/20 12:15:40;;;;;;;;;;;;;;;;;;5095615;28;19916;-69
2022/05/20 12:18:06;;;;;;;;;;;;;;;;;;5095648;28;19936;-69
2022/05/20 12:25:55;;;;;;;;;;;;;;;;;;5094944;28;20352;-70
2022/05/20 12:28:21;;;;;;;;;;;;;;;;;;5095131;28;19912;-68
2022/05/20 12:30:47;;;;;;;;;;;;;;;;;;5095146;28;19909;-69
2022/05/20 12:33:12;;;;;;;;;;;;;;;;;;5094591;28;20057;-68
2022/05/20 12:35:38;;;;;;;;;;;;;;;;;;5095425;28;19916;-68
2022/05/20 12:38:04;;;;;;;;;;;;;;;;;;5104377;28;20394;-67
2022/05/20 12:40:30;;;;;;;;;;;;;;;;;;5096379;28;19920;-69
2022/05/20 12:42:57;;;;;;;;;;;;;;;;;;5079541;28;19953;-68
2022/05/20 12:45:24;;;;;;;;;;;;;;;;;;5091407;28;19916;-70
2022/05/20 12:47:50;;;;;;;;;;;;;;;;;;5092719;28;20383;-69
2022/05/20 12:50:16;;;;;;;;;;;;;;;;;;5093189;28;19908;-68
2022/05/20 12:52:42;;;;;;;;;;;;;;;;;;5092882;28;19908;-68
2022/05/20 12:55:08;;;;;;;;;;;;;;;;;;5093375;28;19943;-69
2022/05/20 12:57:34;;;;;;;;;;;;;;;;;;5094395;28;20426;-68
2022/05/20 13:00:02;;;;;;;;;;;;;;;;;;5094981;28;20272;-69
2022/05/20 13:02:28;;;;;;;;;;;;;;;;;;5094667;28;19912;-70
2022/05/20 13:04:54;;;;;;;;;;;;;;;;;;5093883;28;20007;-70
2022/05/20 13:07:20;;;;;;;;;;;;;;;;;;5094897;28;19915;-70
2022/05/20 13:09:46;;;;;;;;;;;;;;;;;;5094475;28;19929;-70
2022/05/20 13:12:18;;;;;;;;;;;;;;;;;;5076692;28;19999;-70
2022/05/20 13:14:44;;;;;;;;;;;;;;;;;;5095023;28;19916;-70
2022/05/20 13:17:10;;;;;;;;;;;;;;;;;;5094509;28;19909;-69
2022/05/20 13:19:36;;;;;;;;;;;;;;;;;;5094756;28;19920;-70
2022/05/20 13:22:02;;;;;;;;;;;;;;;;;;5094386;28;19916;-70
2022/05/20 13:24:28;;;;;;;;;;;;;;;;;;5094999;28;19999;-71
2022/05/20 13:26:55;;;;;;;;;;;;;;;;;;5094689;28;20360;-71
2022/05/20 13:29:21;;;;;;;;;;;;;;;;;;5094368;28;19915;-70
2022/05/20 13:31:47;;;;;;;;;;;;;;;;;;5094558;28;20343;-70
2022/05/20 13:34:13;;;;;;;;;;;;;;;;;;5093900;28;20257;-70
2022/05/20 13:36:39;;;;;;;;;;;;;;;;;;5090400;28;19912;-70
2022/05/20 13:39:05;;;;;;;;;;;;;;;;;;5084483;28;19972;-70
2022/05/20 13:41:31;;;;;;;;;;;;;;;;;;5088387;28;19965;-70
2022/05/20 13:43:57;;;;;;;;;;;;;;;;;;5074059;28;19969;-70
2022/05/20 13:49:14;;;;;;;;;;;;;;;;;;5074145;28;19915;-70
2022/05/20 13:51:40;;;;;;;;;;;;;;;;;;5073557;28;19916;-70
2022/05/20 13:54:06;;;;;;;;;;;;;;;;;;5084800;28;20025;-70
2022/05/20 13:56:32;;;;;;;;;;;;;;;;;;5094230;28;19912;-70
2022/05/20 13:58:58;;;;;;;;;;;;;;;;;;5089104;28;19961;-70
2022/05/20 14:01:24;;;;;;;;;;;;;;;;;;5073834;28;20308;-70
2022/05/20 14:03:50;;;;;;;;;;;;;;;;;;5073887;28;19908;-70
2022/05/20 14:06:16;;;;;;;;;;;;;;;;;;5073486;28;20379;-71
2022/05/20 14:08:42;;;;;;;;;;;;;;;;;;5073788;28;19941;-71
2022/05/20 14:11:08;;;;;;;;;;;;;;;;;;5073241;28;19909;-70
2022/05/20 14:13:35;;;;;;;;;;;;;;;;;;5073832;28;19991;-70
2022/05/20 14:16:01;;;;;;;;;;;;;;;;;;5073373;28;19909;-70
2022/05/20 14:18:27;;;;;;;;;;;;;;;;;;5073291;28;20305;-70
2022/05/20 14:20:53;;;;;;;;;;;;;;;;;;5073544;28;19916;-70
2022/05/20 14:23:19;;;;;;;;;;;;;;;;;;5073370;28;20015;-70
2022/05/20 14:25:45;;;;;;;;;;;;;;;;;;5073256;28;19908;-70
2022/05/20 14:28:11;;;;;;;;;;;;;;;;;;5073624;28;19908;-70
2022/05/20 14:30:37;;;;;;;;;;;;;;;;;;5073672;28;19954;-71
2022/05/20 14:33:03;;;;;;;;;;;;;;;;;;5073456;28;19991;-70
2022/05/20 14:35:29;;;;;;;;;;;;;;;;;;5073601;28;19908;-70
2022/05/20 14:37:55;;;;;;;;;;;;;;;;;;5073611;28;19915;-70
2022/05/20 14:40:21;;;;;;;;;;;;;;;;;;5072937;28;19921;-70
2022/05/20 14:42:47;;;;;;;;;;;;;;;;;;5073700;28;19966;-71
2022/05/20 14:45:13;;;;;;;;;;;;;;;;;;5073613;28;19908;-71
2022/05/20 14:47:39;;;;;;;;;;;;;;;;;;5073130;28;19919;-71
2022/05/20 14:50:05;;;;;;;;;;;;;;;;;;5073593;28;19912;-71
2022/05/20 14:52:31;;;;;;;;;;;;;;;;;;5073832;28;20377;-71
2022/05/20 14:54:58;;;;;;;;;;;;;;;;;;5073033;28;19908;-70
2022/05/20 14:57:25;;;;;;;;;;;;;;;;;;5072647;28;19912;-71
2022/05/20 14:59:51;;;;;;;;;;;;;;;;;;5073445;28;19908;-70
2022/05/20 15:02:17;;;;;;;;;;;;;;;;;;5072983;28;20318;-70
2022/05/20 15:04:43;;;;;;;;;;;;;;;;;;5073429;28;20333;-70
2022/05/20 15:07:09;;;;;;;;;;;;;;;;;;5073330;28;20276;-70
2022/05/20 15:09:35;;;;;;;;;;;;;;;;;;5072981;28;19916;-70
2022/05/20 15:12:01;;;;;;;;;;;;;;;;;;5073318;28;19908;-71
2022/05/20 15:14:27;;;;;;;;;;;;;;;;;;5072849;28;19908;-71
2022/05/20 15:16:56;;;;;;;;;;;;;;;;;;5080568;28;20280;-70
2022/05/20 15:19:22;;;;;;;;;;;;;;;;;;5076634;28;19913;-70
2022/05/20 15:21:50;;;;;;;;;;;;;;;;;;5072649;28;20399;-70
2022/05/20 15:24:16;;;;;;;;;;;;;;;;;;5073663;28;20371;-71
2022/05/20 15:26:41;;;;;;;;;;;;;;;;;;5073061;28;19909;-70
2022/05/20 15:29:07;;;;;;;;;;;;;;;;;;5076536;28;19909;-70
2022/05/20 15:37:03;;;;;;;;;;;;;;;;;;5075837;28;19971;-70
2022/05/20 15:39:29;;;;;;;;;;;;;;;;;;5077086;28;19909;-70
2022/05/20 15:41:55;;;;;;;;;;;;;;;;;;5075037;28;20011;-70
2022/05/20 15:44:21;;;;;;;;;;;;;;;;;;5076067;28;19909;-70
2022/05/20 15:46:47;;;;;;;;;;;;;;;;;;5076658;28;19951;-70
2022/05/20 15:49:13;;;;;;;;;;;;;;;;;;5075053;28;19916;-70
2022/05/20 15:51:38;;;;;;;;;;;;;;;;;;5074051;28;19916;-70
2022/05/20 15:54:04;;;;;;;;;;;;;;;;;;5074352;28;19908;-70
2022/05/20 15:56:30;;;;;;;;;;;;;;;;;;5074337;28;19938;-70
2022/05/20 15:58:59;;;;;;;;;;;;;;;;;;5074061;28;20360;-70
2022/05/20 16:01:25;;;;;;;;;;;;;;;;;;5074079;28;20355;-70
2022/05/20 16:03:51;;;;;;;;;;;;;;;;;;5074860;28;19931;-70
2022/05/20 16:06:18;;;;;;;;;;;;;;;;;;5076189;28;19909;-70
2022/05/20 16:08:44;;;;;;;;;;;;;;;;;;5076089;28;20364;-70
2022/05/20 16:11:10;;;;;;;;;;;;;;;;;;5075785;28;19908;-70
2022/05/20 16:13:36;;;;;;;;;;;;;;;;;;5075943;28;20246;-70
2022/05/20 16:16:02;;;;;;;;;;;;;;;;;;5076017;28;20354;-70
2022/05/20 16:18:28;;;;;;;;;;;;;;;;;;5075586;28;19939;-70
2022/05/20 16:20:56;;;;;;;;;;;;;;;;;;5075835;28;19919;-71
2022/05/20 16:23:22;;;;;;;;;;;;;;;;;;5075861;28;19914;-70
2022/05/20 16:25:48;;;;;;;;;;;;;;;;;;5075343;28;19999;-70
2022/05/20 16:28:14;;;;;;;;;;;;;;;;;;5075692;28;19995;-70
2022/05/20 16:30:40;;;;;;;;;;;;;;;;;;5075812;28;19999;-69
2022/05/20 16:33:06;;;;;;;;;;;;;;;;;;5075330;28;19919;-70
2022/05/20 16:35:32;;;;;;;;;;;;;;;;;;5075575;28;19955;-70
2022/05/20 16:37:58;;;;;;;;;;;;;;;;;;5075694;28;19915;-70
2022/05/20 16:40:24;;;;;;;;;;;;;;;;;;5074917;28;19920;-70
2022/05/20 16:42:50;;;;;;;;;;;;;;;;;;5075672;28;19951;-70
2022/05/20 16:45:16;;;;;;;;;;;;;;;;;;5075367;28;19908;-70
2022/05/20 16:47:42;;;;;;;;;;;;;;;;;;5075114;28;19908;-70
2022/05/20 16:50:08;;;;;;;;;;;;;;;;;;5075672;28;19908;-70
2022/05/20 16:52:33;;;;;;;;;;;;;;;;;;5075289;28;20337;-70
2022/05/20 16:55:04;;;;;;;;;;;;;;;;;;5056953;28;19909;-70
2022/05/20 17:02:59;;;;;;;;;;;;;;;;;;5075151;28;20045;-70
2022/05/20 17:05:25;;;;;;;;;;;;;;;;;;5075242;28;19940;-70
2022/05/20 17:07:51;;;;;;;;;;;;;;;;;;5074622;28;19909;-70
2022/05/20 17:10:18;;;;;;;;;;;;;;;;;;5075321;28;19913;-70
2022/05/20 17:12:44;;;;;;;;;;;;;;;;;;5075039;28;20011;-70
2022/05/20 17:15:10;;;;;;;;;;;;;;;;;;5074482;28;20401;-70
2022/05/20 17:17:36;;;;;;;;;;;;;;;;;;5074893;28;19951;-70
2022/05/20 17:20:02;;;;;;;;;;;;;;;;;;5074728;28;20380;-70
2022/05/20 17:25:12;;;;;;;;;;;;;;;;;;5074736;28;19931;-71
2022/05/20 17:27:38;;;;;;;;;;;;;;;;;;5074670;28;20349;-71
2022/05/20 17:30:06;;;;;;;;;;;;;;;;;;5074286;28;20342;-71
2022/05/20 17:32:32;;;;;;;;;;;;;;;;;;5075206;28;19913;-70
2022/05/20 17:34:58;;;;;;;;;;;;;;;;;;5074689;28;19912;-70
2022/05/20 17:37:24;;;;;;;;;;;;;;;;;;5074485;28;19915;-70
2022/05/20 17:40:55;;;;;;;;;;;;;;;;;;5091641;27;19912;-69
2022/05/20 17:43:21;;;;;;;;;;;;;;;;;;5090766;28;19918;-69
2022/05/20 17:45:47;;;;;;;;;;;;;;;;;;5091133;28;20368;-69
2022/05/20 17:48:13;;;;;;;;;;;;;;;;;;5089838;28;20283;-69
2022/05/20 17:54:15;;;;;;;;;;;;;;;;;;5091567;27;19922;-71
2022/05/20 17:56:41;;;;;;;;;;;;;;;;;;5090819;28;20002;-71
2022/05/20 17:59:07;;;;;;;;;;;;;;;;;;5091096;28;19954;-69
2022/05/20 18:01:33;;;;;;;;;;;;;;;;;;5091005;28;19931;-69
2022/05/20 18:03:59;;;;;;;;;;;;;;;;;;5090508;28;19908;-70
2022/05/20 18:07:14;;;;;;;;;;;;;;;;;;5071029;28;19939;-70
2022/05/20 18:09:40;;;;;;;;;;;;;;;;;;5071094;28;20343;-70
2022/05/20 18:12:15;;;;;;;;;;;;;;;;;;5069982;28;19939;-69
2022/05/20 18:14:41;;;;;;;;;;;;;;;;;;5070836;28;19916;-69
2022/05/20 18:17:07;;;;;;;;;;;;;;;;;;5071065;28;19916;-70
2022/05/20 18:19:33;;;;;;;;;;;;;;;;;;5070378;28;19912;-69
2022/05/20 18:22:00;;;;;;;;;;;;;;;;;;5070514;28;19915;-68
2022/05/20 18:25:11;;;;;;;;;;;;;;;;;;5111103;27;19919;-69
2022/05/20 18:27:37;;;;;;;;;;;;;;;;;;5111479;28;20002;-70
2022/05/20 18:30:03;;;;;;;;;;;;;;;;;;5111227;28;19953;-69
2022/05/20 18:32:29;;;;;;;;;;;;;;;;;;5110747;28;19915;-69
2022/05/20 18:43:04;;;;;;;;;;;;;;;;;;5092049;27;19916;-69
2022/05/20 18:46:38;;;;;;;;;;;;;;;;;;5091111;27;19916;-70
2022/05/20 18:49:47;;;;;;;;;;;;;;;;;;5152991;27;19998;-69
2022/05/20 18:52:14;;;;;;;;;;;;;;;;;;5152719;27;20413;-70
2022/05/20 18:57:20;;;;;;;;;;;;;;;;;;5091076;27;19919;-69
2022/05/20 19:01:45;;;;;;;;;;;;;;;;;;5091173;27;20278;-69
2022/05/20 19:06:05;;;;;;;;;;;;;;;;;;5091267;27;19923;-69